UAE2E VRMM-OMDB
Flight info
| Callsign | UAE2E |
|---|---|
| Flight time | 3h 44m |
| Altitude | 36000 |
| Route | ELBET1B ELBET L894 KITAL P570 ITURA DCT VAXAS DCT MIVEK P574 IMPED |
| Aircraft | B77W/H-SDE1E2E3FGHIJ2J3J4J5M1RWXY/LB1D1 |
Departure
| Time | 2026-04-22 08:24 |
|---|---|
| Airport | Velana International Airport (VRMM) |
Arrival
| Time | 2026-04-22 12:09 |
|---|---|
| Airport | Dubai International Airport (OMDB) |
| Time | Latitude | Longitude | Altitude | Speed | Heading |
|---|---|---|---|---|---|
| 2026-04-22 07:52 | 4.17973 | 73.52776 | 17 ft | 0 kts | 269° |
| 2026-04-22 08:16 | 4.17974 | 73.52795 | 18 ft | 4 kts | 269° |
| 2026-04-22 08:16 | 4.17974 | 73.52822 | 20 ft | 4 kts | 269° |
| 2026-04-22 08:17 | 4.17974 | 73.52845 | 20 ft | 4 kts | 278° |
| 2026-04-22 08:17 | 4.17966 | 73.52866 | 21 ft | 4 kts | 335° |
| 2026-04-22 08:17 | 4.17941 | 73.52869 | 19 ft | 4 kts | 7° |
| 2026-04-22 08:17 | 4.17923 | 73.52867 | 20 ft | 0 kts | 359° |
| 2026-04-22 08:20 | 4.17936 | 73.52867 | 20 ft | 3 kts | 359° |
| 2026-04-22 08:20 | 4.17972 | 73.52866 | 22 ft | 7 kts | 359° |
| 2026-04-22 08:20 | 4.18023 | 73.52865 | 17 ft | 7 kts | 359° |
| 2026-04-22 08:20 | 4.18074 | 73.52864 | 17 ft | 7 kts | 359° |
| 2026-04-22 08:21 | 4.18115 | 73.52887 | 17 ft | 7 kts | 64° |
| 2026-04-22 08:21 | 4.18145 | 73.52925 | 17 ft | 7 kts | 20° |
| 2026-04-22 08:21 | 4.18189 | 73.52948 | 17 ft | 7 kts | 56° |
| 2026-04-22 08:21 | 4.18194 | 73.52969 | 17 ft | 0 kts | 85° |
| 2026-04-22 08:22 | 4.18196 | 73.52992 | 17 ft | 7 kts | 87° |
| 2026-04-22 08:23 | 4.18197 | 73.53042 | 17 ft | 7 kts | 88° |
| 2026-04-22 08:23 | 4.18205 | 73.53091 | 17 ft | 7 kts | 57° |
| 2026-04-22 08:23 | 4.18254 | 73.53102 | 17 ft | 7 kts | 1° |
| 2026-04-22 08:23 | 4.18378 | 73.53103 | 17 ft | 36 kts | 0° |
| 2026-04-22 08:24 | 4.18888 | 73.53102 | 17 ft | 109 kts | 360° |
| 2026-04-22 08:24 | 4.19866 | 73.53104 | 17 ft | 169 kts | 359° |
| 2026-04-22 08:24 | 4.21182 | 73.53160 | 208 ft | 197 kts | 4° |
| 2026-04-22 08:24 | 4.22546 | 73.53212 | 887 ft | 197 kts | 1° |
| 2026-04-22 08:25 | 4.23922 | 73.53195 | 1575 ft | 198 kts | 359° |
| 2026-04-22 08:25 | 4.25351 | 73.53168 | 1976 ft | 216 kts | 359° |
| 2026-04-22 08:25 | 4.26921 | 73.53145 | 2211 ft | 241 kts | 360° |
| 2026-04-22 08:25 | 4.28650 | 73.53126 | 2687 ft | 254 kts | 0° |
| 2026-04-22 08:26 | 4.30455 | 73.53111 | 3335 ft | 263 kts | 0° |
| 2026-04-22 08:26 | 4.32309 | 73.53099 | 4060 ft | 269 kts | 1° |
| 2026-04-22 08:26 | 4.34198 | 73.53090 | 4853 ft | 272 kts | 1° |
| 2026-04-22 08:26 | 4.36096 | 73.53084 | 5644 ft | 274 kts | 1° |
| 2026-04-22 08:27 | 4.37994 | 73.53079 | 6380 ft | 277 kts | 1° |
| 2026-04-22 08:27 | 4.39936 | 73.53074 | 7078 ft | 281 kts | 1° |
| 2026-04-22 08:27 | 4.41882 | 73.52903 | 7661 ft | 285 kts | 343° |
| 2026-04-22 08:27 | 4.43622 | 73.51916 | 8234 ft | 290 kts | 321° |
| 2026-04-22 08:28 | 4.45161 | 73.50571 | 8852 ft | 295 kts | 320° |
| 2026-04-22 08:28 | 4.46715 | 73.49212 | 9568 ft | 298 kts | 320° |
| 2026-04-22 08:28 | 4.48289 | 73.47836 | 10194 ft | 303 kts | 320° |
| 2026-04-22 08:28 | 4.49930 | 73.46403 | 10435 ft | 325 kts | 320° |
| 2026-04-22 08:29 | 4.51696 | 73.44863 | 10622 ft | 348 kts | 320° |
| 2026-04-22 08:29 | 4.53568 | 73.43234 | 10781 ft | 371 kts | 320° |
| 2026-04-22 08:29 | 4.55556 | 73.41504 | 11188 ft | 384 kts | 320° |
| 2026-04-22 08:29 | 4.57606 | 73.39722 | 11817 ft | 392 kts | 320° |
| 2026-04-22 08:30 | 4.59683 | 73.37918 | 12613 ft | 396 kts | 319° |
| 2026-04-22 08:30 | 4.61774 | 73.36102 | 13421 ft | 400 kts | 319° |
| 2026-04-22 08:30 | 4.63893 | 73.34261 | 14127 ft | 404 kts | 319° |
| 2026-04-22 08:30 | 4.66013 | 73.32421 | 14794 ft | 409 kts | 319° |
| 2026-04-22 08:31 | 4.68178 | 73.30542 | 15485 ft | 413 kts | 319° |
| 2026-04-22 08:31 | 4.70357 | 73.28651 | 16175 ft | 416 kts | 319° |
| 2026-04-22 08:31 | 4.74766 | 73.24823 | 17560 ft | 422 kts | 319° |
| 2026-04-22 08:32 | 4.76997 | 73.22886 | 18235 ft | 425 kts | 319° |
| 2026-04-22 08:32 | 4.79245 | 73.20933 | 18758 ft | 429 kts | 319° |
| 2026-04-22 08:32 | 4.81486 | 73.18987 | 19237 ft | 435 kts | 319° |
| 2026-04-22 08:32 | 4.83789 | 73.16985 | 19744 ft | 439 kts | 319° |
| 2026-04-22 08:33 | 4.86112 | 73.14966 | 20269 ft | 443 kts | 318° |
| 2026-04-22 08:33 | 4.88452 | 73.12932 | 20791 ft | 447 kts | 318° |
| 2026-04-22 08:33 | 4.90817 | 73.10876 | 21299 ft | 451 kts | 318° |
| 2026-04-22 08:33 | 4.93201 | 73.08804 | 21797 ft | 456 kts | 318° |
| 2026-04-22 08:34 | 4.95584 | 73.06731 | 22278 ft | 460 kts | 318° |
| 2026-04-22 08:34 | 4.98011 | 73.04621 | 22750 ft | 464 kts | 317° |
| 2026-04-22 08:34 | 5.00459 | 73.02492 | 23228 ft | 468 kts | 317° |
| 2026-04-22 08:34 | 5.02934 | 73.00339 | 23640 ft | 472 kts | 317° |
| 2026-04-22 08:35 | 5.05431 | 72.98167 | 24046 ft | 475 kts | 317° |
| 2026-04-22 08:35 | 5.07939 | 72.95986 | 24467 ft | 477 kts | 317° |
| 2026-04-22 08:35 | 5.10420 | 72.93828 | 24871 ft | 480 kts | 317° |
| 2026-04-22 08:35 | 5.12957 | 72.91621 | 25253 ft | 483 kts | 317° |
| 2026-04-22 08:36 | 5.15508 | 72.89401 | 25627 ft | 486 kts | 316° |
| 2026-04-22 08:36 | 5.18080 | 72.87162 | 26011 ft | 489 kts | 316° |
| 2026-04-22 08:36 | 5.20662 | 72.84915 | 26391 ft | 492 kts | 316° |
| 2026-04-22 08:36 | 5.23219 | 72.82689 | 26749 ft | 494 kts | 316° |
| 2026-04-22 08:37 | 5.25829 | 72.80417 | 27098 ft | 497 kts | 316° |
| 2026-04-22 08:37 | 5.28460 | 72.78126 | 27469 ft | 500 kts | 316° |
| 2026-04-22 08:37 | 5.31099 | 72.75828 | 27819 ft | 503 kts | 316° |
| 2026-04-22 08:37 | 5.33752 | 72.73518 | 28140 ft | 505 kts | 316° |
| 2026-04-22 08:38 | 5.36390 | 72.71220 | 28469 ft | 508 kts | 316° |
| 2026-04-22 08:38 | 5.39071 | 72.68886 | 28782 ft | 510 kts | 316° |
| 2026-04-22 08:38 | 5.41757 | 72.66545 | 29078 ft | 513 kts | 316° |
| 2026-04-22 08:38 | 5.44461 | 72.64190 | 29418 ft | 514 kts | 316° |
| 2026-04-22 08:39 | 5.47169 | 72.61831 | 29863 ft | 512 kts | 316° |
| 2026-04-22 08:39 | 5.49830 | 72.59513 | 30283 ft | 510 kts | 316° |
| 2026-04-22 08:39 | 5.52521 | 72.57169 | 30662 ft | 510 kts | 316° |
| 2026-04-22 08:39 | 5.55208 | 72.54827 | 30968 ft | 511 kts | 316° |
| 2026-04-22 08:40 | 5.57895 | 72.52484 | 31272 ft | 512 kts | 316° |
| 2026-04-22 08:40 | 5.60555 | 72.50164 | 31607 ft | 512 kts | 316° |
| 2026-04-22 08:40 | 5.63264 | 72.47801 | 31954 ft | 512 kts | 316° |
| 2026-04-22 08:40 | 5.65961 | 72.45449 | 32288 ft | 513 kts | 316° |
| 2026-04-22 08:41 | 5.68656 | 72.43098 | 32615 ft | 513 kts | 316° |
| 2026-04-22 08:41 | 5.71327 | 72.40768 | 32935 ft | 513 kts | 316° |
| 2026-04-22 08:41 | 5.74024 | 72.38415 | 33279 ft | 514 kts | 316° |
| 2026-04-22 08:41 | 5.76722 | 72.36060 | 33611 ft | 514 kts | 316° |
| 2026-04-22 08:42 | 5.79434 | 72.33693 | 33920 ft | 514 kts | 317° |
| 2026-04-22 08:42 | 5.82104 | 72.31363 | 34216 ft | 514 kts | 316° |
| 2026-04-22 08:42 | 5.84805 | 72.29005 | 34543 ft | 512 kts | 316° |
| 2026-04-22 08:42 | 5.87498 | 72.26654 | 34882 ft | 511 kts | 316° |
| 2026-04-22 08:43 | 5.90185 | 72.24307 | 35182 ft | 510 kts | 316° |
| 2026-04-22 08:43 | 5.92859 | 72.21971 | 35504 ft | 509 kts | 316° |
| 2026-04-22 08:43 | 5.95528 | 72.19640 | 35768 ft | 509 kts | 316° |
| 2026-04-22 08:44 | 6.00882 | 72.14965 | 35840 ft | 513 kts | 316° |
| 2026-04-22 08:44 | 6.06253 | 72.10277 | 35831 ft | 507 kts | 316° |
| 2026-04-22 08:45 | 6.11537 | 72.05661 | 35841 ft | 505 kts | 316° |
| 2026-04-22 08:45 | 6.16853 | 72.01014 | 35849 ft | 504 kts | 315° |
| 2026-04-22 08:46 | 6.22146 | 71.96385 | 35850 ft | 504 kts | 315° |
| 2026-04-22 08:46 | 6.27411 | 71.91780 | 35845 ft | 504 kts | 315° |
| 2026-04-22 08:47 | 6.32713 | 71.87141 | 35850 ft | 504 kts | 315° |
| 2026-04-22 08:47 | 6.37986 | 71.82546 | 35843 ft | 504 kts | 316° |
| 2026-04-22 08:48 | 6.43495 | 71.78152 | 35845 ft | 505 kts | 319° |
| 2026-04-22 08:48 | 6.49093 | 71.73864 | 35844 ft | 505 kts | 319° |
| 2026-04-22 08:49 | 6.54632 | 71.69583 | 35845 ft | 505 kts | 318° |
| 2026-04-22 08:49 | 6.60188 | 71.65242 | 35843 ft | 504 kts | 318° |
| 2026-04-22 08:50 | 6.65722 | 71.60901 | 35845 ft | 504 kts | 318° |
| 2026-04-22 08:50 | 6.71230 | 71.56580 | 35843 ft | 504 kts | 318° |
| 2026-04-22 08:51 | 6.76781 | 71.52229 | 35845 ft | 504 kts | 318° |
| 2026-04-22 08:51 | 6.82314 | 71.47890 | 35843 ft | 503 kts | 318° |
| 2026-04-22 08:52 | 6.87843 | 71.43554 | 35849 ft | 503 kts | 318° |
| 2026-04-22 08:52 | 6.93332 | 71.39247 | 35842 ft | 503 kts | 318° |
| 2026-04-22 08:53 | 6.98851 | 71.34915 | 35843 ft | 502 kts | 318° |
| 2026-04-22 08:53 | 7.04368 | 71.30584 | 35843 ft | 502 kts | 318° |
| 2026-04-22 08:54 | 7.09849 | 71.26279 | 35846 ft | 502 kts | 318° |
| 2026-04-22 08:54 | 7.15374 | 71.21939 | 35843 ft | 502 kts | 318° |
| 2026-04-22 08:55 | 7.19950 | 71.18342 | 35852 ft | 502 kts | 318° |
| 2026-04-22 08:55 | 7.25462 | 71.14010 | 35844 ft | 502 kts | 317° |
| 2026-04-22 08:56 | 7.30952 | 71.09693 | 35846 ft | 502 kts | 317° |
| 2026-04-22 08:56 | 7.37367 | 71.04646 | 35838 ft | 502 kts | 317° |
| 2026-04-22 08:57 | 7.41958 | 71.01033 | 35846 ft | 502 kts | 317° |
| 2026-04-22 08:57 | 7.47479 | 70.96687 | 35845 ft | 502 kts | 317° |
| 2026-04-22 08:58 | 7.52993 | 70.92345 | 35846 ft | 502 kts | 317° |
| 2026-04-22 08:58 | 7.58510 | 70.87995 | 35846 ft | 502 kts | 317° |
| 2026-04-22 08:59 | 7.63992 | 70.83668 | 35850 ft | 502 kts | 317° |
| 2026-04-22 08:59 | 7.69471 | 70.79343 | 35845 ft | 501 kts | 317° |
| 2026-04-22 09:00 | 7.74971 | 70.74999 | 35843 ft | 500 kts | 317° |
| 2026-04-22 09:00 | 7.80420 | 70.70694 | 35842 ft | 499 kts | 317° |
| 2026-04-22 09:01 | 7.85898 | 70.66364 | 35846 ft | 499 kts | 317° |
| 2026-04-22 09:01 | 7.91368 | 70.62040 | 35847 ft | 499 kts | 317° |
| 2026-04-22 09:02 | 7.96800 | 70.57744 | 35846 ft | 499 kts | 317° |
| 2026-04-22 09:02 | 8.02261 | 70.53423 | 35847 ft | 499 kts | 317° |
| 2026-04-22 09:03 | 8.07718 | 70.49105 | 35846 ft | 498 kts | 318° |
| 2026-04-22 09:03 | 8.13190 | 70.44773 | 35845 ft | 498 kts | 318° |
| 2026-04-22 09:04 | 8.18639 | 70.40458 | 35848 ft | 498 kts | 318° |
| 2026-04-22 09:04 | 8.24050 | 70.36171 | 35835 ft | 498 kts | 317° |
| 2026-04-22 09:05 | 8.29511 | 70.31842 | 35855 ft | 498 kts | 317° |
| 2026-04-22 09:05 | 8.34971 | 70.27514 | 35840 ft | 499 kts | 317° |
| 2026-04-22 09:06 | 8.40410 | 70.23200 | 35834 ft | 499 kts | 317° |
| 2026-04-22 09:06 | 8.45885 | 70.18857 | 35852 ft | 499 kts | 317° |
| 2026-04-22 09:07 | 8.51313 | 70.14549 | 35836 ft | 499 kts | 317° |
| 2026-04-22 09:07 | 8.56768 | 70.10218 | 35852 ft | 498 kts | 317° |
| 2026-04-22 09:08 | 8.62212 | 70.05894 | 35839 ft | 497 kts | 317° |
| 2026-04-22 09:08 | 8.67653 | 70.01571 | 35839 ft | 496 kts | 317° |
| 2026-04-22 09:09 | 8.73046 | 69.97284 | 35837 ft | 495 kts | 317° |
| 2026-04-22 09:09 | 8.78468 | 69.92972 | 35838 ft | 495 kts | 317° |
| 2026-04-22 09:10 | 8.83881 | 69.88666 | 35839 ft | 494 kts | 317° |
| 2026-04-22 09:10 | 8.89259 | 69.84386 | 35856 ft | 494 kts | 317° |
| 2026-04-22 09:11 | 8.94667 | 69.80081 | 35847 ft | 494 kts | 317° |
| 2026-04-22 09:11 | 9.00076 | 69.75773 | 35839 ft | 494 kts | 317° |
| 2026-04-22 09:12 | 9.05451 | 69.71491 | 35839 ft | 494 kts | 317° |
| 2026-04-22 09:12 | 9.10855 | 69.67183 | 35838 ft | 494 kts | 317° |
| 2026-04-22 09:13 | 9.16256 | 69.62877 | 35835 ft | 494 kts | 317° |
| 2026-04-22 09:13 | 9.21657 | 69.58568 | 35836 ft | 494 kts | 317° |
| 2026-04-22 09:14 | 9.27036 | 69.54276 | 35845 ft | 494 kts | 317° |
| 2026-04-22 09:14 | 9.32439 | 69.49963 | 35848 ft | 493 kts | 317° |
| 2026-04-22 09:15 | 9.37795 | 69.45685 | 35836 ft | 493 kts | 317° |
| 2026-04-22 09:15 | 9.43177 | 69.41386 | 35838 ft | 491 kts | 317° |
| 2026-04-22 09:16 | 9.48542 | 69.37098 | 35834 ft | 490 kts | 317° |
| 2026-04-22 09:16 | 9.53865 | 69.32841 | 35836 ft | 489 kts | 317° |
| 2026-04-22 09:17 | 9.59223 | 69.28554 | 35850 ft | 489 kts | 317° |
| 2026-04-22 09:17 | 9.64546 | 69.24293 | 35843 ft | 489 kts | 317° |
| 2026-04-22 09:18 | 9.69901 | 69.20005 | 35842 ft | 490 kts | 317° |
| 2026-04-22 09:18 | 9.75250 | 69.15721 | 35848 ft | 489 kts | 317° |
| 2026-04-22 09:19 | 9.80558 | 69.11467 | 35840 ft | 488 kts | 317° |
| 2026-04-22 09:19 | 9.85885 | 69.07196 | 35835 ft | 487 kts | 317° |
| 2026-04-22 09:20 | 9.91205 | 69.02926 | 35843 ft | 486 kts | 317° |
| 2026-04-22 09:20 | 9.96484 | 68.98687 | 35827 ft | 486 kts | 317° |
| 2026-04-22 09:21 | 10.01794 | 68.94423 | 35847 ft | 485 kts | 317° |
| 2026-04-22 09:21 | 10.07060 | 68.90191 | 35840 ft | 485 kts | 317° |
| 2026-04-22 09:22 | 10.12368 | 68.85924 | 35841 ft | 486 kts | 317° |
| 2026-04-22 09:22 | 10.17658 | 68.81669 | 35851 ft | 485 kts | 318° |
| 2026-04-22 09:23 | 10.22914 | 68.77441 | 35855 ft | 484 kts | 318° |
| 2026-04-22 09:23 | 10.28195 | 68.73191 | 35836 ft | 483 kts | 318° |
| 2026-04-22 09:24 | 10.33457 | 68.68953 | 35843 ft | 482 kts | 318° |
| 2026-04-22 09:24 | 10.38681 | 68.64745 | 35843 ft | 481 kts | 318° |
| 2026-04-22 09:25 | 10.43927 | 68.60516 | 35843 ft | 481 kts | 318° |
| 2026-04-22 09:25 | 10.49179 | 68.56281 | 35842 ft | 481 kts | 318° |
| 2026-04-22 09:26 | 10.54395 | 68.52073 | 35852 ft | 481 kts | 318° |
| 2026-04-22 09:26 | 10.59640 | 68.47840 | 35842 ft | 480 kts | 318° |
| 2026-04-22 09:27 | 10.64871 | 68.43617 | 35840 ft | 479 kts | 318° |
| 2026-04-22 09:27 | 10.70060 | 68.39426 | 35840 ft | 478 kts | 318° |
| 2026-04-22 09:28 | 10.75280 | 68.35207 | 35836 ft | 477 kts | 318° |
| 2026-04-22 09:28 | 10.80451 | 68.31026 | 35838 ft | 477 kts | 318° |
| 2026-04-22 09:29 | 10.85660 | 68.26813 | 35840 ft | 477 kts | 318° |
| 2026-04-22 09:29 | 10.90826 | 68.22632 | 35838 ft | 477 kts | 318° |
| 2026-04-22 09:30 | 10.96023 | 68.18424 | 35836 ft | 477 kts | 318° |
| 2026-04-22 09:30 | 11.01227 | 68.14209 | 35840 ft | 476 kts | 318° |
| 2026-04-22 09:31 | 11.06367 | 68.10043 | 35838 ft | 475 kts | 318° |
| 2026-04-22 09:31 | 11.11553 | 68.05839 | 35837 ft | 474 kts | 318° |
| 2026-04-22 09:32 | 11.16707 | 68.01658 | 35839 ft | 473 kts | 318° |
| 2026-04-22 09:32 | 11.21827 | 67.97503 | 35850 ft | 473 kts | 318° |
| 2026-04-22 09:33 | 11.26991 | 67.93311 | 35835 ft | 473 kts | 318° |
| 2026-04-22 09:33 | 11.32141 | 67.89127 | 35840 ft | 473 kts | 318° |
| 2026-04-22 09:34 | 11.37267 | 67.84961 | 35841 ft | 473 kts | 318° |
| 2026-04-22 09:34 | 11.42423 | 67.80769 | 35836 ft | 473 kts | 318° |
| 2026-04-22 09:35 | 11.50114 | 67.74512 | 35840 ft | 473 kts | 318° |
| 2026-04-22 09:35 | 11.55261 | 67.70322 | 35841 ft | 474 kts | 318° |
| 2026-04-22 09:36 | 11.60424 | 67.66118 | 35838 ft | 474 kts | 318° |
| 2026-04-22 09:36 | 11.65584 | 67.61913 | 35838 ft | 474 kts | 318° |
| 2026-04-22 09:37 | 11.70709 | 67.57734 | 35841 ft | 474 kts | 318° |
| 2026-04-22 09:37 | 11.75866 | 67.53528 | 35836 ft | 473 kts | 319° |
| 2026-04-22 09:38 | 11.80982 | 67.49353 | 35841 ft | 472 kts | 319° |
| 2026-04-22 09:38 | 11.86116 | 67.45161 | 35845 ft | 472 kts | 319° |
| 2026-04-22 09:39 | 11.91241 | 67.40974 | 35839 ft | 471 kts | 319° |
| 2026-04-22 09:39 | 11.96326 | 67.36818 | 35843 ft | 470 kts | 319° |
| 2026-04-22 09:40 | 12.01437 | 67.32642 | 35843 ft | 469 kts | 319° |
| 2026-04-22 09:40 | 12.06508 | 67.28496 | 35844 ft | 469 kts | 319° |
| 2026-04-22 09:41 | 12.11609 | 67.24323 | 35845 ft | 469 kts | 319° |
| 2026-04-22 09:41 | 12.16709 | 67.20147 | 35858 ft | 469 kts | 319° |
| 2026-04-22 09:42 | 12.21777 | 67.15995 | 35843 ft | 468 kts | 319° |
| 2026-04-22 09:42 | 12.26859 | 67.11830 | 35843 ft | 467 kts | 319° |
| 2026-04-22 09:43 | 12.31934 | 67.07669 | 35843 ft | 467 kts | 319° |
| 2026-04-22 09:43 | 12.36149 | 67.04211 | 35843 ft | 466 kts | 319° |
| 2026-04-22 09:44 | 12.42030 | 66.99384 | 35843 ft | 466 kts | 319° |
| 2026-04-22 09:44 | 12.46271 | 66.95901 | 35861 ft | 466 kts | 319° |
| 2026-04-22 09:45 | 12.51304 | 66.91766 | 35848 ft | 466 kts | 319° |
| 2026-04-22 09:45 | 12.56365 | 66.87605 | 35851 ft | 465 kts | 320° |
| 2026-04-22 09:46 | 12.61381 | 66.83480 | 35846 ft | 464 kts | 320° |
| 2026-04-22 09:46 | 12.66419 | 66.79335 | 35846 ft | 463 kts | 320° |
| 2026-04-22 09:47 | 12.71412 | 66.75224 | 35846 ft | 462 kts | 320° |
| 2026-04-22 09:47 | 12.76423 | 66.71096 | 35846 ft | 461 kts | 320° |
| 2026-04-22 09:48 | 12.81432 | 66.66967 | 35844 ft | 461 kts | 320° |
| 2026-04-22 09:48 | 12.86410 | 66.62862 | 35849 ft | 461 kts | 320° |
| 2026-04-22 09:49 | 12.91412 | 66.58736 | 35847 ft | 462 kts | 320° |
| 2026-04-22 09:49 | 12.96420 | 66.54601 | 35856 ft | 461 kts | 320° |
| 2026-04-22 09:50 | 13.01406 | 66.50483 | 35844 ft | 461 kts | 320° |
| 2026-04-22 09:50 | 13.06411 | 66.46347 | 35844 ft | 461 kts | 320° |
| 2026-04-22 09:51 | 13.11386 | 66.42234 | 35851 ft | 461 kts | 320° |
| 2026-04-22 09:51 | 13.16379 | 66.38104 | 35845 ft | 460 kts | 320° |
| 2026-04-22 09:52 | 13.21376 | 66.33968 | 35845 ft | 460 kts | 320° |
| 2026-04-22 09:52 | 13.26335 | 66.29861 | 35846 ft | 460 kts | 320° |
| 2026-04-22 09:53 | 13.31327 | 66.25725 | 35845 ft | 460 kts | 320° |
| 2026-04-22 09:53 | 13.36280 | 66.21619 | 35848 ft | 459 kts | 320° |
| 2026-04-22 09:54 | 13.41256 | 66.17491 | 35853 ft | 459 kts | 320° |
| 2026-04-22 09:54 | 13.46233 | 66.13360 | 35846 ft | 459 kts | 320° |
| 2026-04-22 09:55 | 13.51167 | 66.09263 | 35848 ft | 458 kts | 320° |
| 2026-04-22 09:55 | 13.56136 | 66.05134 | 35847 ft | 458 kts | 320° |
| 2026-04-22 09:56 | 13.61081 | 66.01024 | 35845 ft | 458 kts | 320° |
| 2026-04-22 09:56 | 13.66045 | 65.96895 | 35847 ft | 458 kts | 320° |
| 2026-04-22 09:57 | 13.70977 | 65.92790 | 35851 ft | 458 kts | 320° |
| 2026-04-22 09:57 | 13.75946 | 65.88652 | 35848 ft | 458 kts | 320° |
| 2026-04-22 09:58 | 13.80901 | 65.84523 | 35847 ft | 458 kts | 320° |
| 2026-04-22 09:58 | 13.85825 | 65.80419 | 35849 ft | 457 kts | 320° |
| 2026-04-22 09:59 | 13.90782 | 65.76284 | 35849 ft | 457 kts | 320° |
| 2026-04-22 09:59 | 13.95692 | 65.72186 | 35849 ft | 457 kts | 320° |
| 2026-04-22 10:00 | 14.00628 | 65.68064 | 35848 ft | 457 kts | 320° |
| 2026-04-22 10:00 | 14.05577 | 65.63929 | 35852 ft | 457 kts | 320° |
| 2026-04-22 10:01 | 14.10487 | 65.59824 | 35843 ft | 456 kts | 320° |
| 2026-04-22 10:01 | 14.15432 | 65.55688 | 35847 ft | 456 kts | 320° |
| 2026-04-22 10:02 | 14.20337 | 65.51582 | 35849 ft | 456 kts | 320° |
| 2026-04-22 10:02 | 14.25273 | 65.47448 | 35850 ft | 456 kts | 320° |
| 2026-04-22 10:03 | 14.30208 | 65.43312 | 35859 ft | 456 kts | 320° |
| 2026-04-22 10:03 | 14.35106 | 65.39206 | 35852 ft | 456 kts | 320° |
| 2026-04-22 10:04 | 14.40036 | 65.35069 | 35852 ft | 456 kts | 320° |
| 2026-04-22 10:04 | 14.44969 | 65.30928 | 35852 ft | 456 kts | 320° |
| 2026-04-22 10:05 | 14.49896 | 65.26789 | 35851 ft | 456 kts | 320° |
| 2026-04-22 10:05 | 14.54783 | 65.22680 | 35851 ft | 455 kts | 320° |
| 2026-04-22 10:06 | 14.59708 | 65.18539 | 35859 ft | 455 kts | 320° |
| 2026-04-22 10:06 | 14.64591 | 65.14433 | 35851 ft | 455 kts | 320° |
| 2026-04-22 10:07 | 14.69508 | 65.10295 | 35853 ft | 455 kts | 320° |
| 2026-04-22 10:07 | 14.74419 | 65.06158 | 35852 ft | 455 kts | 320° |
| 2026-04-22 10:08 | 14.79308 | 65.02037 | 35853 ft | 455 kts | 320° |
| 2026-04-22 10:08 | 14.84220 | 64.97894 | 35853 ft | 455 kts | 320° |
| 2026-04-22 10:09 | 14.89128 | 64.93751 | 35860 ft | 455 kts | 320° |
| 2026-04-22 10:09 | 14.94006 | 64.89632 | 35854 ft | 455 kts | 320° |
| 2026-04-22 10:10 | 14.98908 | 64.85490 | 35854 ft | 454 kts | 320° |
| 2026-04-22 10:10 | 15.03822 | 64.81335 | 35855 ft | 454 kts | 320° |
| 2026-04-22 10:11 | 15.08684 | 64.77222 | 35854 ft | 454 kts | 320° |
| 2026-04-22 10:11 | 15.13583 | 64.73075 | 35855 ft | 454 kts | 320° |
| 2026-04-22 10:12 | 15.18454 | 64.68949 | 35859 ft | 454 kts | 320° |
| 2026-04-22 10:12 | 15.23354 | 64.64795 | 35852 ft | 454 kts | 320° |
| 2026-04-22 10:13 | 15.28246 | 64.60647 | 35849 ft | 455 kts | 320° |
| 2026-04-22 10:13 | 15.33118 | 64.56512 | 35850 ft | 455 kts | 320° |
| 2026-04-22 10:14 | 15.38024 | 64.52346 | 35853 ft | 455 kts | 320° |
| 2026-04-22 10:14 | 15.42899 | 64.48203 | 35852 ft | 455 kts | 320° |
| 2026-04-22 10:15 | 15.47813 | 64.44026 | 35860 ft | 455 kts | 320° |
| 2026-04-22 10:15 | 15.52690 | 64.39877 | 35862 ft | 455 kts | 320° |
| 2026-04-22 10:16 | 15.57601 | 64.35696 | 35838 ft | 456 kts | 320° |
| 2026-04-22 10:16 | 15.62482 | 64.31538 | 35855 ft | 455 kts | 320° |
| 2026-04-22 10:17 | 15.67381 | 64.27362 | 35851 ft | 455 kts | 320° |
| 2026-04-22 10:17 | 15.72286 | 64.23178 | 35853 ft | 455 kts | 320° |
| 2026-04-22 10:18 | 15.77149 | 64.19028 | 35854 ft | 454 kts | 320° |
| 2026-04-22 10:18 | 15.82048 | 64.14843 | 35858 ft | 454 kts | 320° |
| 2026-04-22 10:19 | 15.86903 | 64.10694 | 35853 ft | 454 kts | 320° |
| 2026-04-22 10:19 | 15.91802 | 64.06506 | 35855 ft | 455 kts | 320° |
| 2026-04-22 10:20 | 15.96674 | 64.02336 | 35855 ft | 454 kts | 320° |
| 2026-04-22 10:20 | 16.01554 | 63.98158 | 35852 ft | 454 kts | 320° |
| 2026-04-22 10:21 | 16.06404 | 63.94002 | 35856 ft | 454 kts | 320° |
| 2026-04-22 10:21 | 16.11288 | 63.89815 | 35857 ft | 453 kts | 320° |
| 2026-04-22 10:22 | 16.16135 | 63.85656 | 35853 ft | 454 kts | 320° |
| 2026-04-22 10:22 | 16.21017 | 63.81465 | 35853 ft | 454 kts | 320° |
| 2026-04-22 10:23 | 16.25891 | 63.77277 | 35857 ft | 454 kts | 320° |
| 2026-04-22 10:23 | 16.30733 | 63.73115 | 35847 ft | 454 kts | 320° |
| 2026-04-22 10:24 | 16.35614 | 63.68917 | 35851 ft | 453 kts | 320° |
| 2026-04-22 10:24 | 16.40485 | 63.64723 | 35853 ft | 453 kts | 320° |
| 2026-04-22 10:25 | 16.45326 | 63.60553 | 35852 ft | 453 kts | 320° |
| 2026-04-22 10:25 | 16.50190 | 63.56361 | 35853 ft | 453 kts | 320° |
| 2026-04-22 10:26 | 16.55018 | 63.52196 | 35852 ft | 452 kts | 320° |
| 2026-04-22 10:26 | 16.59871 | 63.48007 | 35854 ft | 452 kts | 320° |
| 2026-04-22 10:27 | 16.64697 | 63.43839 | 35857 ft | 453 kts | 320° |
| 2026-04-22 10:27 | 16.69552 | 63.39642 | 35859 ft | 453 kts | 320° |
| 2026-04-22 10:28 | 16.74411 | 63.35440 | 35855 ft | 453 kts | 320° |
| 2026-04-22 10:28 | 16.79237 | 63.31263 | 35855 ft | 453 kts | 320° |
| 2026-04-22 10:29 | 16.84088 | 63.27061 | 35858 ft | 453 kts | 320° |
| 2026-04-22 10:29 | 16.88943 | 63.22853 | 35856 ft | 453 kts | 320° |
| 2026-04-22 10:30 | 16.93768 | 63.18668 | 35857 ft | 452 kts | 320° |
| 2026-04-22 10:30 | 16.98619 | 63.14457 | 35856 ft | 452 kts | 320° |
| 2026-04-22 10:31 | 17.02645 | 63.10943 | 35854 ft | 452 kts | 319° |
| 2026-04-22 10:31 | 17.07405 | 63.06637 | 35857 ft | 451 kts | 319° |
| 2026-04-22 10:32 | 17.12106 | 63.02338 | 35858 ft | 451 kts | 319° |
| 2026-04-22 10:32 | 17.16833 | 62.98026 | 35865 ft | 450 kts | 319° |
| 2026-04-22 10:33 | 17.21570 | 62.93714 | 35857 ft | 450 kts | 319° |
| 2026-04-22 10:33 | 17.26270 | 62.89437 | 35857 ft | 451 kts | 319° |
| 2026-04-22 10:34 | 17.31006 | 62.85125 | 35856 ft | 451 kts | 319° |
| 2026-04-22 10:34 | 17.35749 | 62.80804 | 35857 ft | 451 kts | 319° |
| 2026-04-22 10:35 | 17.40486 | 62.76484 | 35858 ft | 451 kts | 319° |
| 2026-04-22 10:35 | 17.45186 | 62.72195 | 35860 ft | 451 kts | 319° |
| 2026-04-22 10:36 | 17.49922 | 62.67870 | 35857 ft | 451 kts | 319° |
| 2026-04-22 10:36 | 17.54629 | 62.63568 | 35861 ft | 450 kts | 319° |
| 2026-04-22 10:37 | 17.61723 | 62.57080 | 35860 ft | 450 kts | 319° |
| 2026-04-22 10:38 | 17.66416 | 62.52783 | 35860 ft | 450 kts | 319° |
| 2026-04-22 10:38 | 17.71147 | 62.48449 | 35871 ft | 450 kts | 319° |
| 2026-04-22 10:39 | 17.75862 | 62.44126 | 35864 ft | 449 kts | 319° |
| 2026-04-22 10:39 | 17.80538 | 62.39835 | 35852 ft | 449 kts | 318° |
| 2026-04-22 10:40 | 17.85254 | 62.35505 | 35863 ft | 449 kts | 318° |
| 2026-04-22 10:40 | 17.89963 | 62.31178 | 35866 ft | 448 kts | 318° |
| 2026-04-22 10:41 | 17.94636 | 62.26881 | 35864 ft | 448 kts | 318° |
| 2026-04-22 10:41 | 17.99342 | 62.22551 | 35849 ft | 449 kts | 318° |
| 2026-04-22 10:42 | 18.04013 | 62.18249 | 35867 ft | 449 kts | 318° |
| 2026-04-22 10:42 | 18.08713 | 62.13918 | 35864 ft | 449 kts | 318° |
| 2026-04-22 10:43 | 18.13410 | 62.09586 | 35850 ft | 449 kts | 318° |
| 2026-04-22 10:43 | 18.18082 | 62.05274 | 35848 ft | 449 kts | 318° |
| 2026-04-22 10:44 | 18.22782 | 62.00933 | 35851 ft | 449 kts | 318° |
| 2026-04-22 10:44 | 18.27454 | 61.96616 | 35855 ft | 449 kts | 318° |
| 2026-04-22 10:45 | 18.32147 | 61.92274 | 35852 ft | 449 kts | 318° |
| 2026-04-22 10:45 | 18.36851 | 61.87919 | 35866 ft | 449 kts | 319° |
| 2026-04-22 10:46 | 18.41549 | 61.83567 | 35865 ft | 449 kts | 319° |
| 2026-04-22 10:46 | 18.46246 | 61.79213 | 35847 ft | 449 kts | 319° |
| 2026-04-22 10:47 | 18.50917 | 61.74880 | 35870 ft | 449 kts | 319° |
| 2026-04-22 10:47 | 18.55618 | 61.70515 | 35855 ft | 449 kts | 318° |
| 2026-04-22 10:48 | 18.60278 | 61.66185 | 35851 ft | 449 kts | 318° |
| 2026-04-22 10:48 | 18.64974 | 61.61818 | 35851 ft | 449 kts | 318° |
| 2026-04-22 10:49 | 18.69649 | 61.57467 | 35868 ft | 449 kts | 318° |
| 2026-04-22 10:49 | 18.74345 | 61.53093 | 35871 ft | 449 kts | 318° |
| 2026-04-22 10:50 | 18.79006 | 61.48749 | 35860 ft | 450 kts | 318° |
| 2026-04-22 10:50 | 18.83707 | 61.44364 | 35858 ft | 450 kts | 318° |
| 2026-04-22 10:51 | 18.88409 | 61.39975 | 35862 ft | 451 kts | 318° |
| 2026-04-22 10:51 | 18.93094 | 61.35598 | 35860 ft | 451 kts | 318° |
| 2026-04-22 10:52 | 18.97807 | 61.31192 | 35873 ft | 451 kts | 318° |
| 2026-04-22 10:52 | 19.02473 | 61.26826 | 35852 ft | 450 kts | 318° |
| 2026-04-22 10:53 | 19.07158 | 61.22438 | 35856 ft | 449 kts | 318° |
| 2026-04-22 10:53 | 19.11844 | 61.18047 | 35860 ft | 448 kts | 318° |
| 2026-04-22 10:54 | 19.16507 | 61.13673 | 35855 ft | 448 kts | 318° |
| 2026-04-22 10:54 | 19.21144 | 61.09320 | 35857 ft | 448 kts | 318° |
| 2026-04-22 10:55 | 19.25807 | 61.04940 | 35860 ft | 448 kts | 318° |
| 2026-04-22 10:55 | 19.30470 | 61.00555 | 35883 ft | 447 kts | 319° |
| 2026-04-22 10:56 | 19.35079 | 60.96219 | 35865 ft | 444 kts | 319° |
| 2026-04-22 10:56 | 19.39691 | 60.91877 | 35852 ft | 442 kts | 319° |
| 2026-04-22 10:57 | 19.44278 | 60.87554 | 35855 ft | 440 kts | 319° |
| 2026-04-22 10:57 | 19.48817 | 60.83273 | 35856 ft | 438 kts | 319° |
| 2026-04-22 10:58 | 19.53381 | 60.78965 | 35859 ft | 438 kts | 319° |
| 2026-04-22 10:58 | 19.57944 | 60.74655 | 35852 ft | 439 kts | 319° |
| 2026-04-22 10:59 | 19.62491 | 60.70357 | 35860 ft | 439 kts | 319° |
| 2026-04-22 10:59 | 19.67062 | 60.66033 | 35857 ft | 440 kts | 319° |
| 2026-04-22 11:00 | 19.71602 | 60.61734 | 35858 ft | 440 kts | 319° |
| 2026-04-22 11:00 | 19.76173 | 60.57402 | 35863 ft | 440 kts | 319° |
| 2026-04-22 11:01 | 19.80746 | 60.53065 | 35870 ft | 440 kts | 319° |
| 2026-04-22 11:01 | 19.85320 | 60.48724 | 35861 ft | 440 kts | 319° |
| 2026-04-22 11:02 | 19.89867 | 60.44404 | 35857 ft | 440 kts | 319° |
| 2026-04-22 11:02 | 19.94433 | 60.40063 | 35856 ft | 440 kts | 319° |
| 2026-04-22 11:03 | 19.98993 | 60.35724 | 35858 ft | 439 kts | 319° |
| 2026-04-22 11:03 | 20.03532 | 60.31427 | 35855 ft | 438 kts | 320° |
| 2026-04-22 11:04 | 20.08520 | 60.27701 | 35859 ft | 438 kts | 329° |
| 2026-04-22 11:04 | 20.13787 | 60.24408 | 35855 ft | 438 kts | 329° |
| 2026-04-22 11:05 | 20.19007 | 60.21126 | 35854 ft | 438 kts | 328° |
| 2026-04-22 11:05 | 20.24254 | 60.17806 | 35855 ft | 438 kts | 328° |
| 2026-04-22 11:06 | 20.29474 | 60.14493 | 35856 ft | 438 kts | 328° |
| 2026-04-22 11:06 | 20.34726 | 60.11156 | 35855 ft | 438 kts | 328° |
| 2026-04-22 11:07 | 20.39973 | 60.07819 | 35851 ft | 438 kts | 328° |
| 2026-04-22 11:07 | 20.45185 | 60.04503 | 35850 ft | 438 kts | 328° |
| 2026-04-22 11:08 | 20.50424 | 60.01166 | 35849 ft | 438 kts | 328° |
| 2026-04-22 11:08 | 20.55636 | 59.97845 | 35849 ft | 438 kts | 328° |
| 2026-04-22 11:09 | 20.60892 | 59.94492 | 35852 ft | 438 kts | 328° |
| 2026-04-22 11:09 | 20.66103 | 59.91166 | 35847 ft | 438 kts | 328° |
| 2026-04-22 11:10 | 20.71352 | 59.87812 | 35842 ft | 438 kts | 328° |
| 2026-04-22 11:10 | 20.76560 | 59.84482 | 35845 ft | 438 kts | 328° |
| 2026-04-22 11:11 | 20.81795 | 59.81132 | 35841 ft | 438 kts | 328° |
| 2026-04-22 11:11 | 20.87003 | 59.77796 | 35840 ft | 438 kts | 327° |
| 2026-04-22 11:12 | 20.92240 | 59.74439 | 35838 ft | 438 kts | 327° |
| 2026-04-22 11:12 | 20.97488 | 59.71071 | 35838 ft | 438 kts | 327° |
| 2026-04-22 11:13 | 21.02693 | 59.67728 | 35837 ft | 438 kts | 327° |
| 2026-04-22 11:13 | 21.07925 | 59.64355 | 35845 ft | 438 kts | 327° |
| 2026-04-22 11:14 | 21.13159 | 59.60977 | 35831 ft | 438 kts | 327° |
| 2026-04-22 11:14 | 21.18362 | 59.57616 | 35829 ft | 438 kts | 327° |
| 2026-04-22 11:15 | 21.23592 | 59.54236 | 35829 ft | 439 kts | 327° |
| 2026-04-22 11:15 | 21.28825 | 59.50853 | 35827 ft | 439 kts | 327° |
| 2026-04-22 11:16 | 21.34036 | 59.47485 | 35825 ft | 439 kts | 327° |
| 2026-04-22 11:16 | 21.39286 | 59.44088 | 35821 ft | 439 kts | 327° |
| 2026-04-22 11:17 | 21.44484 | 59.40721 | 35821 ft | 439 kts | 327° |
| 2026-04-22 11:17 | 21.49725 | 59.37323 | 35824 ft | 439 kts | 327° |
| 2026-04-22 11:18 | 21.54964 | 59.33922 | 35827 ft | 439 kts | 327° |
| 2026-04-22 11:18 | 21.60193 | 59.30527 | 35834 ft | 439 kts | 327° |
| 2026-04-22 11:19 | 21.65403 | 59.27146 | 35822 ft | 439 kts | 327° |
| 2026-04-22 11:19 | 21.70637 | 59.23750 | 35822 ft | 439 kts | 327° |
| 2026-04-22 11:20 | 21.74993 | 59.20922 | 35822 ft | 439 kts | 327° |
| 2026-04-22 11:20 | 21.80236 | 59.17514 | 35827 ft | 439 kts | 327° |
| 2026-04-22 11:21 | 21.85469 | 59.14109 | 35840 ft | 439 kts | 327° |
| 2026-04-22 11:21 | 21.90669 | 59.10723 | 35835 ft | 439 kts | 327° |
| 2026-04-22 11:22 | 21.95904 | 59.07310 | 35832 ft | 439 kts | 326° |
| 2026-04-22 11:22 | 22.01136 | 59.03897 | 35835 ft | 439 kts | 326° |
| 2026-04-22 11:23 | 22.06368 | 59.00480 | 35834 ft | 439 kts | 326° |
| 2026-04-22 11:23 | 22.11575 | 58.97077 | 35837 ft | 439 kts | 326° |
| 2026-04-22 11:24 | 22.16799 | 58.93659 | 35834 ft | 439 kts | 326° |
| 2026-04-22 11:24 | 22.22002 | 58.90252 | 35844 ft | 439 kts | 326° |
| 2026-04-22 11:25 | 22.27238 | 58.86821 | 35841 ft | 439 kts | 326° |
| 2026-04-22 11:25 | 22.32421 | 58.83418 | 35835 ft | 439 kts | 326° |
| 2026-04-22 11:26 | 22.37648 | 58.79984 | 35847 ft | 439 kts | 326° |
| 2026-04-22 11:26 | 22.42876 | 58.76545 | 35835 ft | 439 kts | 326° |
| 2026-04-22 11:27 | 22.48074 | 58.73123 | 35836 ft | 439 kts | 326° |
| 2026-04-22 11:27 | 22.53296 | 58.69681 | 35836 ft | 439 kts | 326° |
| 2026-04-22 11:28 | 22.58525 | 58.66232 | 35851 ft | 439 kts | 326° |
| 2026-04-22 11:28 | 22.63720 | 58.62802 | 35840 ft | 440 kts | 326° |
| 2026-04-22 11:29 | 22.68953 | 58.59346 | 35841 ft | 440 kts | 326° |
| 2026-04-22 11:29 | 22.74194 | 58.55887 | 35840 ft | 441 kts | 326° |
| 2026-04-22 11:30 | 22.79405 | 58.52443 | 35841 ft | 441 kts | 326° |
| 2026-04-22 11:30 | 22.84652 | 58.48972 | 35842 ft | 441 kts | 326° |
| 2026-04-22 11:31 | 22.89863 | 58.45520 | 35843 ft | 441 kts | 326° |
| 2026-04-22 11:31 | 22.95100 | 58.42049 | 35844 ft | 440 kts | 326° |
| 2026-04-22 11:32 | 23.00334 | 58.38574 | 35840 ft | 440 kts | 326° |
| 2026-04-22 11:32 | 23.05533 | 58.35122 | 35837 ft | 439 kts | 325° |
| 2026-04-22 11:33 | 23.10758 | 58.31633 | 35832 ft | 440 kts | 325° |
| 2026-04-22 11:33 | 23.15956 | 58.28161 | 35823 ft | 440 kts | 325° |
| 2026-04-22 11:34 | 23.21190 | 58.24664 | 35825 ft | 440 kts | 325° |
| 2026-04-22 11:34 | 23.26424 | 58.21163 | 35829 ft | 441 kts | 325° |
| 2026-04-22 11:35 | 23.31634 | 58.17675 | 35817 ft | 442 kts | 325° |
| 2026-04-22 11:35 | 23.36840 | 58.14083 | 35805 ft | 441 kts | 320° |
| 2026-04-22 11:36 | 23.41422 | 58.09742 | 35818 ft | 438 kts | 313° |
| 2026-04-22 11:36 | 23.45409 | 58.04734 | 35809 ft | 436 kts | 307° |
| 2026-04-22 11:37 | 23.49188 | 57.99560 | 35803 ft | 437 kts | 307° |
| 2026-04-22 11:37 | 23.52954 | 57.94398 | 35815 ft | 437 kts | 307° |
| 2026-04-22 11:38 | 23.56762 | 57.89205 | 35789 ft | 437 kts | 307° |
| 2026-04-22 11:38 | 23.62443 | 57.81477 | 35796 ft | 436 kts | 307° |
| 2026-04-22 11:39 | 23.66237 | 57.76311 | 35784 ft | 435 kts | 307° |
| 2026-04-22 11:39 | 23.70024 | 57.71150 | 35785 ft | 434 kts | 307° |
| 2026-04-22 11:40 | 23.73784 | 57.66020 | 35791 ft | 434 kts | 307° |
| 2026-04-22 11:40 | 23.77564 | 57.60856 | 35787 ft | 434 kts | 307° |
| 2026-04-22 11:41 | 23.81314 | 57.55728 | 35785 ft | 434 kts | 307° |
| 2026-04-22 11:41 | 23.85090 | 57.50559 | 35786 ft | 434 kts | 307° |
| 2026-04-22 11:42 | 23.88830 | 57.45435 | 35786 ft | 434 kts | 307° |
| 2026-04-22 11:42 | 23.92593 | 57.40273 | 35786 ft | 434 kts | 307° |
| 2026-04-22 11:43 | 23.96361 | 57.35098 | 35800 ft | 434 kts | 306° |
| 2026-04-22 11:43 | 24.00126 | 57.29923 | 35788 ft | 434 kts | 306° |
| 2026-04-22 11:44 | 24.03881 | 57.24756 | 35789 ft | 431 kts | 306° |
| 2026-04-22 11:44 | 24.07526 | 57.19740 | 35624 ft | 415 kts | 306° |
| 2026-04-22 11:45 | 24.09309 | 57.17284 | 35242 ft | 409 kts | 306° |
| 2026-04-22 11:45 | 24.11075 | 57.14849 | 34798 ft | 406 kts | 306° |
| 2026-04-22 11:45 | 24.12824 | 57.12434 | 34324 ft | 404 kts | 306° |
| 2026-04-22 11:45 | 24.14545 | 57.10058 | 33860 ft | 402 kts | 306° |
| 2026-04-22 11:46 | 24.16279 | 57.07662 | 33308 ft | 400 kts | 306° |
| 2026-04-22 11:46 | 24.18007 | 57.05273 | 32792 ft | 398 kts | 306° |
| 2026-04-22 11:46 | 24.19727 | 57.02895 | 32273 ft | 396 kts | 306° |
| 2026-04-22 11:46 | 24.21433 | 57.00536 | 31801 ft | 394 kts | 306° |
| 2026-04-22 11:47 | 24.23131 | 56.98187 | 31310 ft | 392 kts | 306° |
| 2026-04-22 11:47 | 24.24827 | 56.95838 | 30817 ft | 390 kts | 306° |
| 2026-04-22 11:47 | 24.26509 | 56.93509 | 30358 ft | 389 kts | 305° |
| 2026-04-22 11:47 | 24.28184 | 56.91186 | 29861 ft | 388 kts | 305° |
| 2026-04-22 11:48 | 24.29837 | 56.88894 | 29305 ft | 387 kts | 305° |
| 2026-04-22 11:48 | 24.31506 | 56.86579 | 28777 ft | 385 kts | 305° |
| 2026-04-22 11:48 | 24.33171 | 56.84268 | 28270 ft | 383 kts | 305° |
| 2026-04-22 11:48 | 24.34820 | 56.81979 | 27791 ft | 381 kts | 305° |
| 2026-04-22 11:49 | 24.36464 | 56.79695 | 27284 ft | 380 kts | 305° |
| 2026-04-22 11:49 | 24.38079 | 56.77451 | 26820 ft | 378 kts | 305° |
| 2026-04-22 11:49 | 24.39707 | 56.75187 | 26342 ft | 377 kts | 305° |
| 2026-04-22 11:49 | 24.41331 | 56.72928 | 25872 ft | 376 kts | 305° |
| 2026-04-22 11:50 | 24.42950 | 56.70674 | 25401 ft | 375 kts | 305° |
| 2026-04-22 11:50 | 24.44544 | 56.68455 | 24940 ft | 374 kts | 305° |
| 2026-04-22 11:50 | 24.46154 | 56.66212 | 24473 ft | 374 kts | 305° |
| 2026-04-22 11:50 | 24.47770 | 56.63959 | 23991 ft | 374 kts | 305° |
| 2026-04-22 11:51 | 24.49384 | 56.61708 | 23537 ft | 374 kts | 305° |
| 2026-04-22 11:51 | 24.51004 | 56.59449 | 22987 ft | 375 kts | 305° |
| 2026-04-22 11:51 | 24.52615 | 56.57200 | 22506 ft | 374 kts | 305° |
| 2026-04-22 11:51 | 24.54206 | 56.54979 | 22028 ft | 373 kts | 305° |
| 2026-04-22 11:52 | 24.55809 | 56.52740 | 21564 ft | 372 kts | 305° |
| 2026-04-22 11:52 | 24.57411 | 56.50501 | 21106 ft | 371 kts | 306° |
| 2026-04-22 11:52 | 24.59000 | 56.48278 | 20666 ft | 370 kts | 306° |
| 2026-04-22 11:52 | 24.60571 | 56.46081 | 20193 ft | 369 kts | 306° |
| 2026-04-22 11:53 | 24.62164 | 56.43851 | 19740 ft | 369 kts | 306° |
| 2026-04-22 11:53 | 24.63752 | 56.41628 | 19290 ft | 369 kts | 306° |
| 2026-04-22 11:53 | 24.65340 | 56.39402 | 18820 ft | 369 kts | 306° |
| 2026-04-22 11:53 | 24.66928 | 56.37177 | 18353 ft | 370 kts | 306° |
| 2026-04-22 11:54 | 24.68519 | 56.34946 | 17845 ft | 371 kts | 306° |
| 2026-04-22 11:54 | 24.70106 | 56.32748 | 17338 ft | 369 kts | 309° |
| 2026-04-22 11:54 | 24.72013 | 56.30851 | 16849 ft | 371 kts | 324° |
| 2026-04-22 11:54 | 24.74278 | 56.29475 | 16396 ft | 372 kts | 335° |
| 2026-04-22 11:55 | 24.76761 | 56.28634 | 15943 ft | 373 kts | 343° |
| 2026-04-22 11:55 | 24.79277 | 56.27939 | 15474 ft | 372 kts | 343° |
| 2026-04-22 11:55 | 24.81753 | 56.27222 | 15029 ft | 372 kts | 341° |
| 2026-04-22 11:55 | 24.84228 | 56.26434 | 14545 ft | 366 kts | 336° |
| 2026-04-22 11:56 | 24.86331 | 56.24937 | 14072 ft | 357 kts | 309° |
| 2026-04-22 11:56 | 24.87615 | 56.22666 | 13815 ft | 343 kts | 290° |
| 2026-04-22 11:56 | 24.88497 | 56.20282 | 13425 ft | 340 kts | 291° |
| 2026-04-22 11:56 | 24.89415 | 56.17863 | 12978 ft | 341 kts | 290° |
| 2026-04-22 11:57 | 24.90342 | 56.15445 | 12542 ft | 341 kts | 290° |
| 2026-04-22 11:57 | 24.91267 | 56.13033 | 12092 ft | 341 kts | 290° |
| 2026-04-22 11:57 | 24.92191 | 56.10621 | 11654 ft | 342 kts | 290° |
| 2026-04-22 11:57 | 24.93107 | 56.08235 | 11231 ft | 342 kts | 291° |
| 2026-04-22 11:58 | 24.94035 | 56.05822 | 10803 ft | 342 kts | 291° |
| 2026-04-22 11:58 | 24.94963 | 56.03405 | 10515 ft | 339 kts | 291° |
| 2026-04-22 11:58 | 24.95870 | 56.01045 | 10372 ft | 323 kts | 290° |
| 2026-04-22 11:58 | 24.96719 | 55.98842 | 10131 ft | 304 kts | 290° |
| 2026-04-22 11:59 | 24.97530 | 55.96736 | 9893 ft | 295 kts | 290° |
| 2026-04-22 11:59 | 24.98317 | 55.94685 | 9681 ft | 292 kts | 290° |
| 2026-04-22 11:59 | 24.99103 | 55.92632 | 9486 ft | 288 kts | 290° |
| 2026-04-22 11:59 | 24.99883 | 55.90592 | 9202 ft | 289 kts | 290° |
| 2026-04-22 12:00 | 25.00669 | 55.88536 | 8841 ft | 292 kts | 290° |
| 2026-04-22 12:00 | 25.01461 | 55.86466 | 8483 ft | 290 kts | 290° |
| 2026-04-22 12:00 | 25.02227 | 55.84468 | 7973 ft | 284 kts | 290° |
| 2026-04-22 12:00 | 25.02992 | 55.82470 | 7394 ft | 280 kts | 290° |
| 2026-04-22 12:01 | 25.03746 | 55.80496 | 6815 ft | 278 kts | 290° |
| 2026-04-22 12:01 | 25.04498 | 55.78529 | 6257 ft | 276 kts | 290° |
| 2026-04-22 12:01 | 25.05245 | 55.76574 | 5606 ft | 277 kts | 289° |
| 2026-04-22 12:01 | 25.05955 | 55.74719 | 5568 ft | 257 kts | 290° |
| 2026-04-22 12:02 | 25.06645 | 55.72911 | 5206 ft | 257 kts | 290° |
| 2026-04-22 12:02 | 25.07340 | 55.71087 | 4934 ft | 255 kts | 290° |
| 2026-04-22 12:02 | 25.08016 | 55.69315 | 4812 ft | 247 kts | 290° |
| 2026-04-22 12:02 | 25.08679 | 55.67579 | 4530 ft | 246 kts | 289° |
| 2026-04-22 12:03 | 25.09342 | 55.65834 | 4274 ft | 244 kts | 290° |
| 2026-04-22 12:03 | 25.10018 | 55.64187 | 4174 ft | 233 kts | 295° |
| 2026-04-22 12:03 | 25.10782 | 55.62661 | 4073 ft | 221 kts | 298° |
| 2026-04-22 12:03 | 25.11554 | 55.61238 | 3871 ft | 212 kts | 299° |
| 2026-04-22 12:04 | 25.12311 | 55.59873 | 3670 ft | 203 kts | 299° |
| 2026-04-22 12:04 | 25.13032 | 55.58569 | 3489 ft | 196 kts | 300° |
| 2026-04-22 12:04 | 25.13748 | 55.57272 | 3191 ft | 197 kts | 300° |
| 2026-04-22 12:04 | 25.14440 | 55.56028 | 3018 ft | 187 kts | 300° |
| 2026-04-22 12:05 | 25.15109 | 55.54823 | 2953 ft | 189 kts | 300° |
| 2026-04-22 12:05 | 25.15809 | 55.53559 | 2760 ft | 191 kts | 301° |
| 2026-04-22 12:05 | 25.16491 | 55.52327 | 2538 ft | 184 kts | 301° |
| 2026-04-22 12:05 | 25.17147 | 55.51140 | 2306 ft | 179 kts | 298° |
| 2026-04-22 12:06 | 25.17571 | 55.50374 | 2147 ft | 173 kts | 300° |
| 2026-04-22 12:06 | 25.18178 | 55.49281 | 1955 ft | 163 kts | 300° |
| 2026-04-22 12:06 | 25.18770 | 55.48210 | 1775 ft | 163 kts | 302° |
| 2026-04-22 12:06 | 25.19367 | 55.47133 | 1560 ft | 164 kts | 304° |
| 2026-04-22 12:07 | 25.19955 | 55.46067 | 1350 ft | 161 kts | 308° |
| 2026-04-22 12:07 | 25.20530 | 55.45037 | 1169 ft | 155 kts | 306° |
| 2026-04-22 12:07 | 25.21100 | 55.44001 | 990 ft | 157 kts | 304° |
| 2026-04-22 12:07 | 25.21646 | 55.42998 | 797 ft | 148 kts | 307° |
| 2026-04-22 12:08 | 25.22189 | 55.42029 | 588 ft | 149 kts | 305° |
| 2026-04-22 12:08 | 25.22725 | 55.41055 | 417 ft | 149 kts | 307° |
| 2026-04-22 12:08 | 25.23270 | 55.40071 | 178 ft | 151 kts | 305° |
| 2026-04-22 12:08 | 25.23813 | 55.39081 | 37 ft | 145 kts | 306° |
| 2026-04-22 12:09 | 25.24283 | 55.38248 | 32 ft | 111 kts | 301° |
| 2026-04-22 12:09 | 25.24583 | 55.37694 | 27 ft | 35 kts | 297° |
| 2026-04-22 12:09 | 25.24613 | 55.37500 | 27 ft | 21 kts | 270° |
| 2026-04-22 12:09 | 25.24614 | 55.37424 | 27 ft | 7 kts | 272° |
| 2026-04-22 12:10 | 25.24616 | 55.37384 | 27 ft | 5 kts | 272° |
| 2026-04-22 12:10 | 25.24617 | 55.37342 | 26 ft | 6 kts | 272° |
| 2026-04-22 12:10 | 25.24622 | 55.37299 | 26 ft | 6 kts | 281° |
| 2026-04-22 12:10 | 25.24630 | 55.37265 | 26 ft | 5 kts | 288° |
| 2026-04-22 12:11 | 25.24643 | 55.37233 | 26 ft | 5 kts | 295° |
| 2026-04-22 12:11 | 25.24657 | 55.37201 | 27 ft | 5 kts | 295° |
| 2026-04-22 12:11 | 25.24672 | 55.37169 | 27 ft | 5 kts | 302° |
| 2026-04-22 12:11 | 25.24695 | 55.37130 | 27 ft | 7 kts | 303° |
| 2026-04-22 12:12 | 25.24720 | 55.37087 | 27 ft | 7 kts | 303° |
| 2026-04-22 12:12 | 25.24741 | 55.37052 | 27 ft | 5 kts | 303° |
| 2026-04-22 12:12 | 25.24755 | 55.37028 | 27 ft | 1 kts | 303° |
| 2026-04-22 12:12 | 25.24760 | 55.37020 | 27 ft | 1 kts | 303° |
| 2026-04-22 12:13 | 25.24770 | 55.37002 | 27 ft | 9 kts | 302° |
| 2026-04-22 12:13 | 25.24809 | 55.36934 | 27 ft | 11 kts | 300° |
| 2026-04-22 12:13 | 25.24843 | 55.36860 | 27 ft | 11 kts | 292° |
| 2026-04-22 12:13 | 25.24863 | 55.36781 | 27 ft | 11 kts | 279° |
| 2026-04-22 12:14 | 25.24883 | 55.36702 | 24 ft | 11 kts | 289° |
| 2026-04-22 12:14 | 25.24914 | 55.36628 | 27 ft | 11 kts | 300° |
| 2026-04-22 12:14 | 25.24952 | 55.36557 | 26 ft | 11 kts | 300° |
| 2026-04-22 12:14 | 25.24992 | 55.36487 | 26 ft | 11 kts | 302° |
| 2026-04-22 12:15 | 25.25026 | 55.36428 | 28 ft | 8 kts | 302° |
| 2026-04-22 12:15 | 25.25052 | 55.36382 | 31 ft | 7 kts | 302° |
| 2026-04-22 12:15 | 25.25064 | 55.36361 | 29 ft | 0 kts | 302° |
| 2026-04-22 12:16 | 25.25065 | 55.36360 | 31 ft | 0 kts | 302° |
| 2026-04-22 12:16 | 25.25065 | 55.36359 | 31 ft | 0 kts | 302° |
| 2026-04-22 12:17 | 25.25086 | 55.36323 | 28 ft | 8 kts | 302° |
| 2026-04-22 12:18 | 25.25114 | 55.36272 | 26 ft | 8 kts | 301° |
| 2026-04-22 12:18 | 25.25156 | 55.36197 | 26 ft | 16 kts | 302° |
| 2026-04-22 12:18 | 25.25224 | 55.36077 | 30 ft | 19 kts | 302° |
| 2026-04-22 12:18 | 25.25292 | 55.35956 | 30 ft | 19 kts | 302° |
| 2026-04-22 12:19 | 25.25361 | 55.35834 | 30 ft | 19 kts | 302° |
| 2026-04-22 12:19 | 25.25429 | 55.35712 | 29 ft | 19 kts | 302° |
| 2026-04-22 12:19 | 25.25496 | 55.35592 | 29 ft | 19 kts | 302° |
| 2026-04-22 12:19 | 25.25564 | 55.35470 | 29 ft | 19 kts | 302° |
| 2026-04-22 12:20 | 25.25633 | 55.35348 | 32 ft | 19 kts | 302° |
| 2026-04-22 12:20 | 25.25695 | 55.35237 | 29 ft | 12 kts | 302° |
| 2026-04-22 12:20 | 25.25729 | 55.35169 | 31 ft | 10 kts | 283° |
| 2026-04-22 12:20 | 25.25695 | 55.35133 | 27 ft | 8 kts | 197° |
| 2026-04-22 12:21 | 25.25644 | 55.35112 | 28 ft | 8 kts | 203° |
| 2026-04-22 12:21 | 25.25602 | 55.35092 | 28 ft | 4 kts | 203° |
| 2026-04-22 12:21 | 25.25577 | 55.35080 | 28 ft | 3 kts | 204° |
| 2026-04-22 12:21 | 25.25568 | 55.35076 | 28 ft | 0 kts | 204° |